Time;durP1;ratioP1;P1;durP2;ratioP2;P2;SDS_P1;SDS_P2;PMS_P1;PMS_P2;Temp;Humidity;BMP_temperature;BMP_pressure;BME280_temperature;BME280_humidity;BME280_pressure;Samples;Min_cycle;Max_cycle;Signal;HPM_P1;HPM_P2
2023/05/27 00:01:10;;;;;;;1.67;0.70;;;18.70;56.00;;;;;;5013179;28;20228;-56
2023/05/27 00:03:41;;;;;;;0.95;0.75;;;18.70;56.00;;;;;;5012487;28;20614;-58
2023/05/27 00:06:12;;;;;;;1.00;0.70;;;18.80;56.00;;;;;;5013725;28;20235;-54
2023/05/27 00:08:44;;;;;;;0.63;0.50;;;18.80;56.00;;;;;;5013780;28;20200;-55
2023/05/27 00:11:15;;;;;;;1.42;0.73;;;18.80;56.00;;;;;;5013689;28;20217;-53
2023/05/27 00:13:46;;;;;;;1.00;0.55;;;18.80;56.00;;;;;;5014106;28;20197;-57
2023/05/27 00:16:17;;;;;;;0.50;0.50;;;18.80;56.00;;;;;;5013559;28;20201;-52
2023/05/27 00:18:47;;;;;;;0.57;0.50;;;18.80;56.00;;;;;;5013641;28;20339;-51
2023/05/27 00:21:18;;;;;;;0.50;0.50;;;18.80;56.10;;;;;;5013730;28;20229;-50
2023/05/27 00:23:53;;;;;;;0.60;0.47;;;18.80;56.10;;;;;;5013492;28;20197;-53
2023/05/27 00:26:24;;;;;;;1.00;0.70;;;18.80;56.10;;;;;;5013770;28;20246;-55
2023/05/27 00:28:55;;;;;;;1.27;0.60;;;18.90;56.10;;;;;;5012833;28;20204;-53
2023/05/27 00:31:25;;;;;;;0.45;0.45;;;18.90;56.10;;;;;;5011487;28;20220;-57
2023/05/27 00:33:56;;;;;;;1.08;0.80;;;18.90;56.10;;;;;;5013396;28;20672;-57
2023/05/27 00:36:27;;;;;;;0.98;0.50;;;18.90;56.70;;;;;;5013178;28;20672;-57
2023/05/27 00:38:59;;;;;;;0.95;0.50;;;18.90;56.10;;;;;;5013617;28;20193;-55
2023/05/27 00:41:30;;;;;;;1.02;0.75;;;18.90;56.10;;;;;;5013229;28;20232;-56
2023/05/27 00:44:01;;;;;;;0.90;0.60;;;18.90;56.10;;;;;;5013151;28;20666;-55
2023/05/27 00:46:31;;;;;;;1.35;0.60;;;18.90;56.10;;;;;;5013353;28;20719;-56
2023/05/27 00:49:02;;;;;;;0.68;0.60;;;18.90;56.10;;;;;;5013275;28;20263;-56
2023/05/27 00:51:33;;;;;;;1.25;0.95;;;18.90;56.10;;;;;;5013513;28;20221;-56
2023/05/27 00:54:05;;;;;;;1.38;0.80;;;18.90;56.10;;;;;;5013199;28;20564;-56
2023/05/27 00:56:36;;;;;;;1.13;0.70;;;18.90;56.10;;;;;;5010713;28;20193;-55
2023/05/27 00:59:07;;;;;;;2.75;0.95;;;19.00;56.20;;;;;;4993883;28;20201;-58
2023/05/27 01:01:38;;;;;;;2.53;1.00;;;19.00;56.20;;;;;;4993762;28;20225;-56
2023/05/27 01:04:12;;;;;;;1.15;1.00;;;19.00;56.20;;;;;;5012636;28;20653;-55
2023/05/27 01:06:50;;;;;;;1.10;0.85;;;19.00;56.20;;;;;;5012178;28;20284;-56
2023/05/27 01:09:29;;;;;;;1.90;1.00;;;19.00;56.20;;;;;;5012373;28;20196;-55
2023/05/27 01:12:07;;;;;;;4.78;1.42;;;19.00;56.20;;;;;;5012152;28;20744;-55
2023/05/27 01:14:39;;;;;;;2.83;1.10;;;19.00;56.20;;;;;;5012454;28;20657;-56
2023/05/27 01:17:11;;;;;;;4.22;1.33;;;19.10;56.20;;;;;;5012140;28;20201;-55
2023/05/27 01:19:46;;;;;;;1.90;0.90;;;19.10;56.20;;;;;;5012106;28;20245;-54
2023/05/27 01:22:17;;;;;;;2.60;1.13;;;19.10;56.20;;;;;;5012245;28;20310;-55
2023/05/27 01:24:51;;;;;;;2.72;1.60;;;19.10;56.20;;;;;;5012200;28;20193;-55
2023/05/27 01:27:24;;;;;;;3.17;1.60;;;19.10;56.20;;;;;;5012470;28;20213;-57
2023/05/27 01:29:56;;;;;;;2.80;1.55;;;19.10;56.20;;;;;;5012745;28;20243;-55
2023/05/27 01:32:32;;;;;;;2.47;1.48;;;19.10;56.20;;;;;;5012368;28;20219;-56
2023/05/27 01:35:07;;;;;;;3.00;1.27;;;19.20;56.30;;;;;;5012592;28;20648;-56
2023/05/27 01:37:40;;;;;;;3.38;1.38;;;19.10;56.30;;;;;;5012505;28;20192;-57
2023/05/27 01:40:16;;;;;;;5.28;1.80;;;19.10;56.30;;;;;;5011444;28;20785;-58
2023/05/27 01:42:47;;;;;;;2.35;1.52;;;19.20;56.40;;;;;;5011830;28;20232;-56
2023/05/27 01:45:18;;;;;;;4.13;1.85;;;19.20;56.40;;;;;;5011677;28;20201;-56
2023/05/27 01:47:49;;;;;;;3.33;1.50;;;19.20;56.40;;;;;;5012199;28;20199;-56
2023/05/27 01:50:19;;;;;;;3.53;1.92;;;19.20;56.40;;;;;;5012804;28;20197;-54
2023/05/27 01:52:50;;;;;;;5.63;1.85;;;19.20;56.40;;;;;;5012145;28;20200;-56
2023/05/27 01:55:23;;;;;;;4.00;1.70;;;19.20;56.30;;;;;;5012311;28;20219;-58
2023/05/27 01:57:53;;;;;;;3.35;2.00;;;19.30;56.40;;;;;;5012120;28;20207;-56
2023/05/27 02:00:24;;;;;;;4.53;2.00;;;19.30;56.30;;;;;;5011627;28;20208;-57
2023/05/27 02:02:55;;;;;;;3.33;1.70;;;19.30;56.30;;;;;;5011647;28;20320;-57
2023/05/27 02:05:26;;;;;;;3.70;2.08;;;19.30;56.30;;;;;;5011718;28;20192;-57
2023/05/27 02:07:57;;;;;;;3.92;2.05;;;19.30;56.30;;;;;;5011740;28;20204;-56
2023/05/27 02:10:29;;;;;;;5.20;1.90;;;19.30;56.30;;;;;;5011636;28;20615;-56
2023/05/27 02:13:00;;;;;;;5.88;2.60;;;19.30;56.30;;;;;;5012094;28;20599;-55
2023/05/27 02:15:31;;;;;;;5.55;2.40;;;19.30;56.30;;;;;;5011726;28;20203;-56
2023/05/27 02:18:01;;;;;;;4.25;2.40;;;19.30;56.40;;;;;;5011210;28;20193;-55
2023/05/27 02:20:32;;;;;;;4.47;2.60;;;19.40;56.60;;;;;;5011321;28;20760;-57
2023/05/27 02:23:06;;;;;;;4.93;1.90;;;19.40;56.50;;;;;;5011679;28;20220;-56
2023/05/27 02:25:38;;;;;;;5.30;2.30;;;19.40;56.50;;;;;;5012109;28;20208;-56
2023/05/27 02:28:09;;;;;;;4.50;2.47;;;19.40;56.40;;;;;;5011504;28;20193;-57
2023/05/27 02:30:40;;;;;;;3.65;2.00;;;19.40;56.40;;;;;;5011251;28;20657;-56
2023/05/27 02:33:11;;;;;;;3.15;2.00;;;19.40;56.40;;;;;;5011531;28;20226;-54
2023/05/27 02:35:42;;;;;;;4.55;2.10;;;19.40;56.40;;;;;;5011648;28;20700;-56
2023/05/27 02:38:12;;;;;;;4.22;2.22;;;19.40;56.40;;;;;;5011222;28;20200;-56
2023/05/27 02:40:45;;;;;;;4.70;2.13;;;19.50;56.40;;;;;;5011600;28;20661;-56
2023/05/27 02:43:16;;;;;;;4.07;2.10;;;19.50;56.40;;;;;;5011467;28;20228;-56
2023/05/27 02:45:46;;;;;;;4.43;2.05;;;19.50;56.40;;;;;;5011223;28;20254;-56
2023/05/27 02:48:17;;;;;;;5.88;2.38;;;19.50;56.40;;;;;;5011504;28;20197;-58
2023/05/27 02:50:47;;;;;;;5.15;2.55;;;19.50;56.40;;;;;;5011702;28;20217;-57
2023/05/27 02:53:19;;;;;;;4.97;3.00;;;19.50;56.40;;;;;;5014385;28;20580;-58
2023/05/27 02:55:51;;;;;;;5.03;2.85;;;19.50;56.40;;;;;;5013411;28;20197;-57
2023/05/27 02:58:22;;;;;;;5.15;2.90;;;19.50;56.50;;;;;;5014677;28;20259;-57
2023/05/27 03:00:53;;;;;;;7.38;3.60;;;19.50;56.50;;;;;;5014875;28;20225;-58
2023/05/27 03:03:23;;;;;;;5.50;2.63;;;19.50;56.50;;;;;;5014821;28;20228;-58
2023/05/27 03:05:54;;;;;;;6.90;2.63;;;19.50;56.50;;;;;;5014995;28;20193;-57
2023/05/27 03:08:25;;;;;;;4.63;2.78;;;19.50;56.50;;;;;;5014646;28;20197;-57
2023/05/27 03:10:57;;;;;;;4.60;2.42;;;19.60;56.50;;;;;;5014902;28;20228;-57
2023/05/27 03:13:28;;;;;;;5.88;2.60;;;19.60;56.40;;;;;;5014840;28;20208;-57
2023/05/27 03:15:58;;;;;;;5.18;2.45;;;19.60;56.40;;;;;;5014832;28;20196;-58
2023/05/27 03:18:29;;;;;;;4.43;2.58;;;19.60;56.40;;;;;;5015135;28;20654;-57
2023/05/27 03:21:01;;;;;;;4.95;2.35;;;19.60;56.40;;;;;;5014476;28;20224;-57
2023/05/27 03:23:31;;;;;;;4.50;2.17;;;19.60;56.40;;;;;;5014650;28;20312;-58
2023/05/27 03:26:04;;;;;;;6.05;2.88;;;19.60;56.40;;;;;;5014615;28;20576;-57
2023/05/27 03:28:34;;;;;;;6.93;3.47;;;19.60;56.40;;;;;;5014019;28;20283;-52
2023/05/27 03:31:05;;;;;;;6.47;2.90;;;19.60;56.40;;;;;;5014126;28;20641;-58
2023/05/27 03:33:36;;;;;;;3.45;1.73;;;19.60;56.40;;;;;;5014086;28;20340;-49
2023/05/27 03:36:07;;;;;;;8.27;3.70;;;19.70;56.40;;;;;;5013900;28;20196;-58
2023/05/27 03:38:37;;;;;;;8.23;3.53;;;19.70;56.30;;;;;;5013129;28;20609;-59
2023/05/27 03:41:10;;;;;;;7.30;3.08;;;19.70;56.30;;;;;;5010659;28;20224;-58
2023/05/27 03:43:40;;;;;;;8.40;3.55;;;19.70;56.30;;;;;;5006883;28;20224;-58
2023/05/27 03:46:11;;;;;;;5.80;2.67;;;19.70;56.40;;;;;;5010814;28;20201;-58
2023/05/27 03:48:42;;;;;;;4.38;2.50;;;19.70;56.30;;;;;;5002004;28;20199;-58
2023/05/27 03:51:12;;;;;;;5.88;2.60;;;19.70;56.40;;;;;;5014073;28;20596;-57
2023/05/27 03:53:43;;;;;;;4.63;2.72;;;19.70;56.90;;;;;;5013270;28;20709;-56
2023/05/27 03:56:15;;;;;;;6.70;2.92;;;19.70;56.30;;;;;;5012717;28;20681;-58
2023/05/27 03:58:46;;;;;;;6.28;2.97;;;19.80;56.40;;;;;;5011296;28;20204;-57
2023/05/27 04:01:17;;;;;;;5.03;2.92;;;19.80;56.40;;;;;;5013665;28;20228;-58
2023/05/27 04:03:47;;;;;;;7.40;2.78;;;19.80;56.40;;;;;;5011906;28;20228;-57
2023/05/27 04:06:18;;;;;;;5.55;2.85;;;19.80;56.40;;;;;;5013016;28;20271;-58
2023/05/27 04:08:49;;;;;;;5.68;2.97;;;19.80;56.30;;;;;;5013151;28;20276;-58
2023/05/27 04:11:22;;;;;;;5.57;2.92;;;19.80;56.30;;;;;;5012865;28;20221;-58
2023/05/27 04:13:53;;;;;;;5.45;2.70;;;19.80;56.20;;;;;;5012138;28;20208;-58
2023/05/27 04:16:24;;;;;;;7.55;3.25;;;19.80;56.20;;;;;;5013348;28;20201;-58
2023/05/27 04:18:55;;;;;;;4.65;2.60;;;19.90;56.20;;;;;;5012884;28;20200;-57
2023/05/27 04:21:26;;;;;;;5.72;2.83;;;19.90;56.20;;;;;;5012160;28;20262;-56
2023/05/27 04:23:56;;;;;;;6.07;2.70;;;19.90;56.40;;;;;;5013508;28;20220;-58
2023/05/27 04:26:29;;;;;;;4.15;2.30;;;19.90;56.20;;;;;;5012628;28;20204;-58
2023/05/27 04:29:00;;;;;;;6.15;2.80;;;20.00;56.80;;;;;;5012458;28;20197;-58
2023/05/27 04:31:31;;;;;;;7.63;2.47;;;20.00;56.30;;;;;;5012134;28;20307;-58
2023/05/27 04:34:02;;;;;;;4.45;2.58;;;20.00;56.20;;;;;;5012810;28;20201;-57
2023/05/27 04:36:33;;;;;;;5.30;2.50;;;20.00;56.20;;;;;;5012201;28;20553;-58
2023/05/27 04:39:04;;;;;;;6.43;2.58;;;20.00;56.10;;;;;;5011766;28;20213;-58
2023/05/27 04:41:36;;;;;;;5.15;2.35;;;20.00;56.10;;;;;;5012039;28;20216;-58
2023/05/27 04:44:07;;;;;;;3.75;2.10;;;20.00;56.10;;;;;;5012355;28;20589;-58
2023/05/27 04:46:38;;;;;;;4.30;2.38;;;20.00;56.10;;;;;;5012330;28;20665;-59
2023/05/27 04:49:09;;;;;;;3.80;2.22;;;20.00;56.00;;;;;;5011815;28;20239;-58
2023/05/27 04:51:40;;;;;;;3.83;2.10;;;20.00;56.00;;;;;;5012995;28;20217;-58
2023/05/27 04:54:11;;;;;;;4.53;1.98;;;20.00;56.00;;;;;;5011427;28;20204;-57
2023/05/27 04:56:43;;;;;;;4.35;2.05;;;20.10;56.00;;;;;;5012373;28;20205;-57
2023/05/27 04:59:16;;;;;;;3.15;1.85;;;20.10;56.00;;;;;;5012262;28;20192;-57
2023/05/27 05:04:30;;;;;;;3.33;2.00;;;20.10;56.00;;;;;;5009117;28;20220;-58
2023/05/27 05:07:01;;;;;;;3.38;1.83;;;20.10;56.00;;;;;;5011951;28;20193;-58
2023/05/27 05:09:31;;;;;;;3.88;2.25;;;20.10;55.90;;;;;;5011316;28;20193;-59
2023/05/27 05:12:04;;;;;;;3.17;1.75;;;20.10;55.90;;;;;;5011539;28;20221;-57
2023/05/27 05:14:35;;;;;;;4.45;2.15;;;20.00;55.80;;;;;;5011814;28;20211;-57
2023/05/27 05:17:05;;;;;;;3.20;2.10;;;20.10;55.80;;;;;;5011444;28;20901;-58
2023/05/27 05:19:36;;;;;;;3.42;1.92;;;20.00;55.80;;;;;;5012018;28;20200;-58
2023/05/27 05:22:07;;;;;;;4.10;2.05;;;20.00;55.80;;;;;;5011422;28;20213;-57
2023/05/27 05:24:38;;;;;;;3.53;1.92;;;20.00;55.70;;;;;;5011906;28;20221;-56
2023/05/27 05:27:10;;;;;;;3.17;1.92;;;20.00;55.80;;;;;;5011834;28;20288;-55
2023/05/27 05:29:41;;;;;;;2.70;1.83;;;20.00;55.80;;;;;;5010667;28;20191;-54
2023/05/27 05:32:12;;;;;;;4.22;2.22;;;20.00;55.80;;;;;;5011029;28;20221;-58
2023/05/27 05:34:43;;;;;;;2.20;1.67;;;20.00;55.80;;;;;;5011261;28;20248;-56
2023/05/27 05:37:14;;;;;;;2.05;1.58;;;20.00;55.80;;;;;;5010950;28;20189;-57
2023/05/27 05:39:45;;;;;;;2.83;1.92;;;20.00;55.80;;;;;;5011126;28;20196;-58
2023/05/27 05:42:18;;;;;;;2.30;1.60;;;20.00;55.90;;;;;;5010946;28;20224;-56
2023/05/27 05:44:48;;;;;;;2.38;1.63;;;20.00;55.80;;;;;;5011707;28;20228;-56
2023/05/27 05:47:19;;;;;;;3.45;1.88;;;20.00;55.80;;;;;;5011169;28;20583;-58
2023/05/27 05:49:49;;;;;;;2.95;1.80;;;20.00;55.80;;;;;;5012404;28;20197;-57
2023/05/27 05:52:20;;;;;;;3.20;1.70;;;20.00;55.80;;;;;;5011212;28;20223;-58
2023/05/27 05:54:51;;;;;;;4.95;2.20;;;20.00;55.80;;;;;;5011650;28;20201;-57
2023/05/27 05:57:23;;;;;;;3.55;1.95;;;20.00;55.80;;;;;;5010304;28;20629;-58
2023/05/27 05:59:54;;;;;;;3.65;2.17;;;20.00;55.80;;;;;;5010674;28;20197;-57
2023/05/27 06:02:25;;;;;;;4.05;2.03;;;20.00;55.80;;;;;;5011079;28;20224;-57
2023/05/27 06:04:55;;;;;;;2.53;1.60;;;20.00;55.80;;;;;;5011131;28;20227;-57
2023/05/27 06:07:26;;;;;;;4.85;1.98;;;20.00;55.80;;;;;;5010122;28;20205;-57
2023/05/27 06:09:57;;;;;;;2.38;1.73;;;20.00;55.80;;;;;;5010524;28;20204;-57
2023/05/27 06:12:29;;;;;;;3.63;1.80;;;20.00;55.90;;;;;;5009415;28;20217;-58
2023/05/27 06:15:00;;;;;;;3.78;2.03;;;19.90;55.80;;;;;;5010564;28;20284;-57
2023/05/27 06:17:30;;;;;;;4.70;2.08;;;19.90;55.80;;;;;;5011635;28;20208;-56
2023/05/27 06:20:01;;;;;;;2.78;1.55;;;19.90;55.80;;;;;;5009978;28;20212;-56
2023/05/27 06:22:32;;;;;;;3.38;1.80;;;19.90;55.90;;;;;;5010778;28;20220;-58
2023/05/27 06:25:02;;;;;;;3.45;2.03;;;19.90;55.90;;;;;;5010586;28;20220;-56
2023/05/27 06:27:35;;;;;;;1.95;1.63;;;19.90;55.90;;;;;;5010558;28;20268;-58
2023/05/27 06:30:06;;;;;;;3.10;1.70;;;19.90;55.90;;;;;;5010064;28;20197;-58
2023/05/27 06:32:36;;;;;;;4.13;2.20;;;19.90;55.90;;;;;;5010919;28;20212;-59
2023/05/27 06:35:08;;;;;;;3.13;1.95;;;19.90;55.90;;;;;;5011310;28;20200;-58
2023/05/27 06:37:38;;;;;;;3.42;2.22;;;19.90;55.90;;;;;;5010826;28;20653;-58
2023/05/27 06:40:10;;;;;;;4.97;2.00;;;19.90;55.90;;;;;;5010777;28;20662;-59
2023/05/27 06:42:43;;;;;;;4.13;2.03;;;19.90;55.90;;;;;;5009966;28;20213;-59
2023/05/27 06:45:14;;;;;;;4.40;2.25;;;19.90;55.90;;;;;;5010049;28;20697;-59
2023/05/27 06:47:45;;;;;;;3.03;1.80;;;19.90;55.90;;;;;;4995047;28;20193;-59
2023/05/27 06:50:16;;;;;;;3.78;2.10;;;19.80;55.90;;;;;;5011068;28;20664;-59
2023/05/27 06:52:47;;;;;;;2.90;1.80;;;19.80;55.90;;;;;;5010368;28;20219;-59
2023/05/27 06:55:18;;;;;;;2.55;1.75;;;19.80;55.90;;;;;;5009488;28;20227;-59
2023/05/27 06:57:50;;;;;;;2.33;1.55;;;19.80;55.90;;;;;;5010615;28;20193;-59
2023/05/27 07:00:21;;;;;;;2.50;1.83;;;19.80;55.90;;;;;;5010965;28;20208;-59
2023/05/27 07:02:52;;;;;;;3.40;2.08;;;19.80;55.90;;;;;;4998320;28;20188;-58
2023/05/27 07:05:23;;;;;;;3.22;1.67;;;19.80;55.90;;;;;;5010261;28;20212;-59
2023/05/27 07:07:53;;;;;;;3.63;2.08;;;19.80;55.90;;;;;;5010046;28;20255;-59
2023/05/27 07:10:24;;;;;;;2.80;1.60;;;19.80;55.90;;;;;;5010326;28;20201;-58
2023/05/27 07:12:56;;;;;;;2.92;1.83;;;19.80;55.90;;;;;;5009570;28;20200;-58
2023/05/27 07:15:29;;;;;;;3.05;1.95;;;19.80;55.90;;;;;;5009693;28;20205;-59
2023/05/27 07:17:59;;;;;;;2.55;1.85;;;19.80;55.90;;;;;;5010668;28;20694;-59
2023/05/27 07:20:30;;;;;;;3.42;1.90;;;19.80;55.90;;;;;;5010174;28;20677;-59
2023/05/27 07:23:00;;;;;;;4.05;2.38;;;19.80;55.90;;;;;;5010231;28;20220;-59
2023/05/27 07:25:31;;;;;;;3.53;1.60;;;19.80;55.90;;;;;;5009615;28;20716;-58
2023/05/27 07:28:04;;;;;;;3.42;1.63;;;19.80;55.90;;;;;;5010032;28;20200;-59
2023/05/27 07:30:34;;;;;;;2.53;1.80;;;19.70;55.90;;;;;;5010524;28;20201;-59
2023/05/27 07:33:05;;;;;;;3.63;2.03;;;19.70;55.90;;;;;;5009702;28;20229;-59
2023/05/27 07:35:36;;;;;;;3.40;2.05;;;19.70;55.80;;;;;;5010966;28;20193;-59
2023/05/27 07:38:06;;;;;;;2.88;1.67;;;19.80;55.90;;;;;;5011414;28;20189;-59
2023/05/27 07:40:37;;;;;;;1.83;1.40;;;19.70;55.90;;;;;;5013810;28;20208;-59
2023/05/27 07:43:09;;;;;;;2.60;1.90;;;19.80;55.90;;;;;;5013159;28;20189;-58
2023/05/27 07:45:40;;;;;;;2.17;1.40;;;19.70;55.90;;;;;;5013723;28;20233;-58
2023/05/27 07:48:11;;;;;;;1.70;1.38;;;19.70;55.80;;;;;;5013771;28;20192;-58
2023/05/27 07:50:41;;;;;;;2.75;1.67;;;19.80;55.90;;;;;;5013804;28;20200;-58
2023/05/27 07:53:12;;;;;;;2.05;1.60;;;19.70;55.80;;;;;;5012511;28;20193;-58
2023/05/27 07:55:42;;;;;;;2.42;1.40;;;19.70;55.80;;;;;;5012547;28;20200;-58
2023/05/27 07:58:15;;;;;;;3.15;1.70;;;19.70;55.80;;;;;;5013159;28;20274;-58
2023/05/27 08:00:46;;;;;;;1.92;1.35;;;19.70;55.80;;;;;;5008691;28;20201;-58
2023/05/27 08:03:16;;;;;;;3.58;2.08;;;19.70;55.80;;;;;;5012662;28;20185;-58
2023/05/27 08:05:47;;;;;;;2.28;1.60;;;19.70;55.90;;;;;;5012306;28;20698;-58
2023/05/27 08:08:18;;;;;;;1.73;1.40;;;19.70;55.90;;;;;;5012791;28;20189;-58
2023/05/27 08:10:49;;;;;;;2.00;1.50;;;19.70;55.90;;;;;;5012606;28;20220;-58
2023/05/27 08:13:21;;;;;;;2.72;1.60;;;19.70;55.90;;;;;;5012859;28;20281;-57
2023/05/27 08:15:52;;;;;;;2.20;1.50;;;19.70;55.90;;;;;;5013301;28;20212;-57
2023/05/27 08:18:22;;;;;;;1.98;1.40;;;19.70;56.50;;;;;;5013056;28;20193;-58
2023/05/27 08:20:53;;;;;;;2.08;1.65;;;19.70;55.90;;;;;;5013786;28;20225;-58
2023/05/27 08:23:25;;;;;;;1.60;1.25;;;19.60;55.80;;;;;;5013259;28;20217;-58
2023/05/27 08:25:55;;;;;;;3.40;1.38;;;19.70;55.80;;;;;;5012562;28;20228;-58
2023/05/27 08:28:28;;;;;;;1.73;1.30;;;19.60;55.80;;;;;;5013328;28;20208;-57
2023/05/27 08:30:58;;;;;;;2.10;1.40;;;19.60;55.80;;;;;;5013321;28;20229;-58
2023/05/27 08:33:29;;;;;;;2.42;1.38;;;19.60;55.80;;;;;;5023101;28;20196;-58
2023/05/27 08:36:00;;;;;;;2.38;1.45;;;19.60;55.80;;;;;;5012853;28;20676;-58
2023/05/27 08:38:30;;;;;;;3.28;1.50;;;19.60;55.80;;;;;;5013399;28;20192;-58
2023/05/27 08:41:02;;;;;;;2.25;1.42;;;19.60;55.90;;;;;;5012653;28;20220;-58
2023/05/27 08:43:34;;;;;;;2.45;1.50;;;19.60;55.90;;;;;;5012681;28;20200;-58
2023/05/27 08:46:05;;;;;;;2.20;1.48;;;19.60;55.90;;;;;;5012458;28;20247;-58
2023/05/27 08:48:36;;;;;;;1.95;1.35;;;19.60;55.90;;;;;;5012572;28;20223;-58
2023/05/27 08:51:07;;;;;;;2.50;1.63;;;19.60;55.90;;;;;;5012303;28;20688;-58
2023/05/27 08:53:38;;;;;;;2.58;1.38;;;19.60;56.00;;;;;;5012453;28;20197;-58
2023/05/27 08:56:11;;;;;;;2.30;1.50;;;19.60;55.90;;;;;;5012292;28;20200;-60
2023/05/27 08:58:44;;;;;;;1.95;1.40;;;19.60;55.90;;;;;;5012069;28;20538;-58
2023/05/27 09:01:15;;;;;;;2.00;1.20;;;19.60;55.90;;;;;;5011713;28;20259;-59
2023/05/27 09:03:46;;;;;;;1.95;1.30;;;19.60;55.90;;;;;;5012470;28;20677;-58
2023/05/27 09:06:17;;;;;;;3.08;1.40;;;19.60;55.90;;;;;;5012687;28;20225;-58
2023/05/27 09:08:48;;;;;;;3.20;1.40;;;19.60;55.90;;;;;;5012047;28;20652;-58
2023/05/27 09:11:34;;;;;;;2.65;1.50;;;19.50;55.90;;;;;;5012669;28;20213;-58
2023/05/27 09:14:07;;;;;;;2.17;1.38;;;19.50;55.90;;;;;;5012187;28;20195;-58
2023/05/27 09:16:44;;;;;;;2.03;1.35;;;19.50;55.90;;;;;;5012284;28;20197;-58
2023/05/27 09:19:19;;;;;;;2.20;1.00;;;19.50;55.90;;;;;;5012689;28;20197;-58
2023/05/27 09:21:50;;;;;;;2.50;1.30;;;19.50;55.90;;;;;;5012343;28;20220;-58
2023/05/27 09:24:21;;;;;;;2.35;1.27;;;19.50;56.00;;;;;;5012193;28;20666;-60
2023/05/27 09:26:54;;;;;;;3.17;1.55;;;19.50;56.00;;;;;;5007819;28;20223;-58
2023/05/27 09:29:27;;;;;;;1.65;1.38;;;19.50;56.00;;;;;;5011606;28;20546;-56
2023/05/27 09:31:58;;;;;;;1.77;1.20;;;19.50;56.00;;;;;;5011068;28;20248;-57
2023/05/27 09:34:29;;;;;;;2.00;1.33;;;19.50;56.00;;;;;;5011917;28;20201;-57
2023/05/27 09:37:00;;;;;;;0.90;0.90;;;19.50;56.00;;;;;;5011617;28;20258;-57
2023/05/27 09:39:30;;;;;;;2.47;1.42;;;19.50;56.00;;;;;;5011654;28;20204;-57
2023/05/27 09:42:01;;;;;;;1.98;1.50;;;19.50;56.00;;;;;;5011484;28;20238;-57
2023/05/27 09:44:40;;;;;;;2.10;1.15;;;19.50;56.00;;;;;;5012171;28;20227;-57
2023/05/27 09:47:11;;;;;;;2.10;1.20;;;19.50;56.00;;;;;;5009680;28;20200;-57
2023/05/27 09:49:42;;;;;;;2.13;1.40;;;19.50;56.00;;;;;;5010274;28;20196;-57
2023/05/27 09:52:19;;;;;;;1.88;1.23;;;19.50;56.00;;;;;;5011324;28;20216;-56
2023/05/27 09:54:52;;;;;;;3.20;1.40;;;19.50;56.00;;;;;;5011204;28;20196;-58
2023/05/27 09:57:23;;;;;;;1.70;1.30;;;19.50;56.00;;;;;;5011189;28;20236;-57
2023/05/27 09:59:56;;;;;;;3.90;1.40;;;19.50;56.00;;;;;;5011349;28;20205;-57
2023/05/27 10:02:28;;;;;;;1.45;1.20;;;19.40;56.00;;;;;;4998196;28;20229;-57
2023/05/27 10:05:00;;;;;;;1.67;1.20;;;19.50;56.10;;;;;;5011367;28;20290;-57
2023/05/27 10:07:31;;;;;;;2.05;1.27;;;19.50;56.10;;;;;;5010499;28;20201;-58
2023/05/27 10:10:02;;;;;;;1.38;0.98;;;19.40;56.10;;;;;;5011294;28;20211;-57
2023/05/27 10:12:33;;;;;;;3.13;1.20;;;19.50;56.70;;;;;;4991195;28;20217;-58
2023/05/27 10:15:06;;;;;;;1.45;0.98;;;19.40;56.00;;;;;;4990985;28;20223;-57
2023/05/27 10:17:48;;;;;;;1.75;1.10;;;19.50;56.10;;;;;;5009711;28;20205;-55
2023/05/27 10:20:31;;;;;;;1.55;1.17;;;19.40;56.00;;;;;;5010565;28;20199;-57
2023/05/27 10:23:13;;;;;;;1.27;1.02;;;19.50;56.10;;;;;;5011192;28;20440;-55
2023/05/27 10:25:49;;;;;;;1.95;1.25;;;19.40;55.90;;;;;;5009886;28;20701;-55
2023/05/27 10:28:33;;;;;;;2.17;1.30;;;19.40;56.00;;;;;;5011174;28;20196;-55
2023/05/27 10:31:12;;;;;;;1.75;1.10;;;19.40;56.00;;;;;;5010425;28;20213;-57
2023/05/27 10:33:45;;;;;;;1.42;1.05;;;19.40;56.00;;;;;;5011305;28;20219;-57
2023/05/27 10:36:17;;;;;;;1.35;1.10;;;19.40;56.00;;;;;;5010138;28;20197;-56
2023/05/27 10:38:58;;;;;;;1.50;1.00;;;19.40;56.00;;;;;;5011537;28;20197;-55
2023/05/27 10:41:29;;;;;;;1.48;1.00;;;19.40;56.10;;;;;;5010357;28;20213;-56
2023/05/27 10:44:01;;;;;;;2.08;1.20;;;19.40;56.10;;;;;;5011155;28;20203;-57
2023/05/27 10:46:42;;;;;;;1.77;1.27;;;19.40;56.10;;;;;;5009856;28;20229;-57
2023/05/27 10:49:18;;;;;;;1.10;0.93;;;19.40;56.10;;;;;;5010546;28;20280;-57
2023/05/27 10:51:51;;;;;;;1.85;1.00;;;19.40;56.10;;;;;;5003919;28;20220;-57
2023/05/27 10:54:26;;;;;;;1.70;1.30;;;19.40;56.10;;;;;;5011340;28;20192;-57
2023/05/27 10:56:56;;;;;;;1.73;1.13;;;19.40;56.10;;;;;;5010354;28;20208;-57
2023/05/27 10:59:33;;;;;;;1.88;1.02;;;19.40;56.10;;;;;;5009724;28;20231;-56
2023/05/27 11:02:07;;;;;;;1.17;0.93;;;19.40;56.10;;;;;;5010040;28;20244;-56
2023/05/27 11:04:39;;;;;;;1.52;1.20;;;19.30;56.00;;;;;;5010267;28;20196;-57
2023/05/27 11:07:10;;;;;;;1.42;1.00;;;19.30;56.00;;;;;;5010737;28;20192;-58
2023/05/27 11:09:53;;;;;;;1.48;1.10;;;19.30;56.10;;;;;;5010545;28;20196;-58
2023/05/27 11:12:24;;;;;;;1.33;1.00;;;19.30;56.10;;;;;;5010107;28;20212;-57
2023/05/27 11:14:56;;;;;;;1.02;0.85;;;19.30;56.70;;;;;;5014329;28;20277;-57
2023/05/27 11:17:29;;;;;;;1.77;1.10;;;19.30;56.10;;;;;;5013513;28;20193;-57
2023/05/27 11:20:01;;;;;;;1.05;0.93;;;19.30;56.10;;;;;;5013988;28;20200;-56
2023/05/27 11:22:32;;;;;;;1.00;0.90;;;19.30;56.20;;;;;;5014004;28;20209;-58
2023/05/27 11:25:05;;;;;;;1.35;1.02;;;19.30;56.20;;;;;;5014404;28;20228;-58
2023/05/27 11:27:40;;;;;;;2.55;1.20;;;19.30;56.20;;;;;;5013314;28;20189;-57
2023/05/27 11:30:12;;;;;;;1.42;1.00;;;19.30;56.20;;;;;;5013562;28;20231;-57
2023/05/27 11:32:45;;;;;;;1.20;1.08;;;19.30;56.20;;;;;;5013560;28;20212;-58
2023/05/27 11:35:19;;;;;;;1.48;1.10;;;19.30;56.20;;;;;;5013903;28;20216;-57
2023/05/27 11:37:52;;;;;;;0.80;0.80;;;19.30;56.20;;;;;;5013756;28;20339;-57
2023/05/27 11:40:23;;;;;;;2.47;1.17;;;19.30;56.20;;;;;;5014182;28;20204;-58
2023/05/27 11:42:54;;;;;;;1.30;1.20;;;19.30;56.10;;;;;;5013968;28;20204;-57
2023/05/27 11:45:26;;;;;;;1.75;1.10;;;19.20;56.10;;;;;;5013511;28;20228;-57
2023/05/27 11:47:59;;;;;;;1.42;1.20;;;19.20;56.10;;;;;;5014442;28;20288;-57
2023/05/27 11:50:31;;;;;;;1.70;1.10;;;19.20;56.10;;;;;;5012957;28;20703;-58
2023/05/27 11:53:04;;;;;;;1.52;1.17;;;19.20;56.10;;;;;;5013554;28;20542;-57
2023/05/27 11:55:35;;;;;;;1.13;1.00;;;19.20;56.10;;;;;;5010909;28;20683;-57
2023/05/27 11:58:06;;;;;;;0.82;0.80;;;19.20;56.20;;;;;;5013870;28;20231;-58
2023/05/27 12:00:36;;;;;;;1.70;1.20;;;19.20;56.20;;;;;;5013032;28;20223;-58
2023/05/27 12:03:09;;;;;;;1.83;0.90;;;19.20;56.20;;;;;;5013224;28;20668;-57
2023/05/27 12:05:39;;;;;;;1.35;1.05;;;19.20;56.20;;;;;;5013313;28;20216;-57
2023/05/27 12:08:10;;;;;;;1.20;1.08;;;19.20;56.20;;;;;;5013208;28;20193;-58
2023/05/27 12:10:41;;;;;;;1.20;0.90;;;19.20;56.20;;;;;;5013413;28;20200;-56
2023/05/27 12:13:11;;;;;;;1.40;0.95;;;19.20;56.20;;;;;;5013008;28;20622;-58
2023/05/27 12:15:42;;;;;;;1.30;0.90;;;19.20;56.20;;;;;;5012576;28;20661;-58
2023/05/27 12:18:14;;;;;;;1.50;1.00;;;19.20;56.20;;;;;;5012301;28;20192;-58
2023/05/27 12:20:46;;;;;;;2.33;1.13;;;19.10;56.20;;;;;;5011692;28;20684;-57
2023/05/27 12:23:16;;;;;;;1.77;1.20;;;19.10;56.10;;;;;;5011874;28;20757;-56
2023/05/27 12:25:47;;;;;;;1.38;1.00;;;19.10;56.20;;;;;;5012113;28;20228;-58
2023/05/27 12:28:18;;;;;;;1.23;0.90;;;19.10;56.20;;;;;;5012632;28;20204;-58
2023/05/27 12:30:49;;;;;;;1.38;1.00;;;19.10;56.10;;;;;;5012192;28;20225;-57
2023/05/27 12:33:21;;;;;;;2.08;0.90;;;19.10;56.10;;;;;;5012782;28;20227;-56
2023/05/27 12:35:52;;;;;;;2.05;0.90;;;19.10;56.80;;;;;;5012589;28;20613;-58
2023/05/27 12:38:23;;;;;;;1.42;0.95;;;19.10;56.20;;;;;;5012837;28;20251;-58
2023/05/27 12:40:55;;;;;;;2.50;1.17;;;19.10;56.20;;;;;;5013156;28;20613;-58
2023/05/27 12:43:26;;;;;;;1.02;0.90;;;19.10;56.20;;;;;;5013140;28;20549;-57
2023/05/27 12:45:56;;;;;;;1.25;0.85;;;19.10;56.30;;;;;;5012631;28;20220;-58
2023/05/27 12:48:29;;;;;;;1.15;0.80;;;19.10;56.30;;;;;;5012335;28;20196;-58
2023/05/27 12:50:59;;;;;;;1.35;1.08;;;19.10;56.30;;;;;;5013101;28;20275;-57
2023/05/27 12:53:30;;;;;;;1.65;1.10;;;19.10;56.30;;;;;;5012023;28;20205;-58
2023/05/27 12:56:01;;;;;;;1.42;1.02;;;19.10;56.20;;;;;;5012455;28;20204;-58
2023/05/27 12:58:31;;;;;;;1.00;0.90;;;19.10;56.20;;;;;;5012570;28;20196;-57
2023/05/27 13:01:02;;;;;;;1.65;0.90;;;19.00;56.10;;;;;;5013127;28;20212;-57
2023/05/27 13:03:34;;;;;;;1.33;1.10;;;19.00;56.20;;;;;;5012029;28;20204;-57
2023/05/27 13:06:05;;;;;;;1.15;1.00;;;19.00;56.20;;;;;;5012394;28;20220;-57
2023/05/27 13:08:36;;;;;;;1.55;0.93;;;19.00;56.20;;;;;;5011386;28;20208;-58
2023/05/27 13:11:07;;;;;;;1.40;0.98;;;19.00;56.10;;;;;;5011957;28;20220;-58
2023/05/27 13:13:38;;;;;;;1.15;0.80;;;18.90;56.10;;;;;;5012127;28;20657;-57